Search for airport 
image banner adimage banner ad
image banner ad

DAAV - Jijel / Ferhat Abbas

Located in Jijel, Algeria

ICAO - DAAV, IATA - GJL

Data provided by Airmate  

General information

Coordinates: N36°47'40" E5°52'25"
Elevation is 36 feet MSL.
 
Rated:
View ratings: [VIEW]


View others Airports in Jijel Province

Operational data

Open for public use
Current time UTC:
Current local time:
Weather
METAR: DAAV 130000Z 12005KT 8000 NSC 28/19 Q1010
TAF: TAF DAAV 122300Z 1300/1324 16010KT 8000 FEW020 BECMG 1306/1308 35010KT TEMPO 1318/1324 5000 -TSRA FEW020CB BKN030 BECMG 1317/1319 20012KT
View NOTAMs / SUP AIP / TFR affecting this airport [VIEW]
Communications frequencies: [VIEW]

Runways:

RWY identifierQFULength (ft)Width (ft)SurfaceLDA (ft)
17171°7874148ASP
35351°7874148

Airport contact information

Address: Jijel Algeria

Satellite view of DAAV